Portada
METAR-TAF:

METAR-TAF

Aeroports :

Duixanbe, Tadjikistan

latitud: 38-33N, longitud: 068-47E, altitud: 803 m

Observació

L'informe es va fer fa 12 minuts, a les 21:00 UTC
Vent 4 kt amb direcció variable
Temperatura 23°C
Humitat 57%
Pressió 1010 hPa
Visibilitat: 9000 m
Núvols disperses a una alçada de 2200 ft

METAR: UTDD 142100Z VRB02MPS 9000 SCT022 23/14 Q1010 R09/CLRD// NOSIG RMK QFE690/0919

Hora: 02:12 (21:12 UTC)

Pronòstic

L'informe es va fer fa 3 hores i 12 minuts, a les 18:00 UTC
Pronòstic vàlid del 14 a les 19 UTC al 15 a les 07 UTC
Vent 4 kt amb direcció variable
Visibilitat: 6000 m
Escasses núvols a una alçada de 6600 ft
Núvols disperses a una alçada de 15000 ft
Temporalment
l' 14 a les 19 UTC al 15 a les 07 UTC
Vent 10 kt del Est/Nord-Est

TAF: UTDD 141800Z 1419/1507 VRB02MPS 6000 FEW066 SCT150 TEMPO 1419/1507 07005MPS

Observacions i pronòstics meteorològics de més de 4000 aeroports (METAR i TAF).

Les estacions disponibles són els punts grocs i vermells al mapa.

Posi el ratolí al punt desitjat per veure el nom de l'estació.

Feu clic per veure les observacions i els pronòstics meteorològics.

Per canviar el mapa: feu clic els botons verds amb una creu de color negre per apropar; al botó verd amb un guió per allunyar la imatge; o en les fletxes verdes per a mapes adjacents.


METAR-TAF: